Time;durP1;ratioP1;P1;durP2;ratioP2;P2;SDS_P1;SDS_P2;PMS_P1;PMS_P2;Temp;Humidity;BMP_temperature;BMP_pressure;BME280_temperature;BME280_humidity;BME280_pressure;Samples;Min_cycle;Max_cycle;Signal;HPM_P1;HPM_P2
2023/03/20 00:00:13;;;;;;;20.77;10.65;;;;;;;2.78;67.25;101167.12;1764138;80;21248;-61
2023/03/20 00:03:20;;;;;;;20.17;11.78;;;;;;;2.73;67.26;101165.70;1763857;81;21366;-61
2023/03/20 00:06:32;;;;;;;25.20;12.85;;;;;;;2.73;67.44;101161.17;1771542;80;21563;-61
2023/03/20 00:09:38;;;;;;;20.45;12.70;;;;;;;2.75;67.57;101166.47;1746707;81;21406;-61
2023/03/20 00:12:46;;;;;;;21.75;13.50;;;;;;;2.78;67.65;101166.25;1763946;81;21209;-61
2023/03/20 00:15:52;;;;;;;18.87;12.68;;;;;;;2.79;67.71;101166.66;1777494;79;21204;-60
2023/03/20 00:18:58;;;;;;;22.35;12.58;;;;;;;2.80;67.73;101172.42;1763968;81;21197;-60
2023/03/20 00:22:05;;;;;;;20.05;12.35;;;;;;;2.80;67.77;101167.90;1753817;81;21213;-60
2023/03/20 00:25:16;;;;;;;22.07;12.05;;;;;;;2.77;67.70;101163.19;1763821;80;21232;-60
2023/03/20 00:28:52;;;;;;;22.00;12.03;;;;;;;2.74;67.68;101161.55;1763925;81;21528;-60
2023/03/20 00:32:00;;;;;;;20.12;11.48;;;;;;;2.70;67.69;101162.74;1777593;79;21208;-61
2023/03/20 00:35:06;;;;;;;17.55;10.23;;;;;;;2.67;67.69;101158.03;1777547;79;21204;-60
2023/03/20 00:38:12;;;;;;;22.70;11.93;;;;;;;2.65;67.72;101154.56;1777611;80;21172;-61
2023/03/20 00:41:36;;;;;;;16.75;9.93;;;;;;;2.60;67.69;101149.99;1763869;80;21253;-62
2023/03/20 00:44:45;;;;;;;19.27;10.72;;;;;;;2.56;67.50;101153.86;1756464;81;21190;-61
2023/03/20 00:47:52;;;;;;;14.95;10.53;;;;;;;2.54;67.50;101153.09;1750226;81;21237;-61
2023/03/20 00:50:57;;;;;;;19.35;10.50;;;;;;;2.56;67.52;101156.56;1763748;80;21213;-62
2023/03/20 00:54:05;;;;;;;18.70;11.18;;;;;;;2.60;67.50;101164.34;1746607;81;21346;-62
2023/03/20 00:57:21;;;;;;;19.15;11.68;;;;;;;2.65;67.60;101171.66;1763827;80;21221;-62
2023/03/20 01:00:46;;;;;;;21.12;11.40;;;;;;;2.72;67.82;101166.22;1763498;80;21217;-62
2023/03/20 01:03:54;;;;;;;19.42;11.38;;;;;;;2.79;67.75;101167.50;1767045;80;21240;-60
2023/03/20 01:07:00;;;;;;;22.17;11.95;;;;;;;2.82;67.67;101167.28;1766579;80;21225;-62
2023/03/20 01:10:06;;;;;;;23.15;12.45;;;;;;;2.89;67.78;101173.13;1766529;80;21173;-61
2023/03/20 01:13:31;;;;;;;23.10;12.82;;;;;;;2.99;67.86;101183.20;1766397;80;21201;-62
2023/03/20 01:16:38;;;;;;;27.65;13.38;;;;;;;3.04;67.84;101172.05;1766202;80;21341;-62
2023/03/20 01:19:43;;;;;;;25.62;14.47;;;;;;;3.11;67.93;101172.49;1766409;80;21194;-62
2023/03/20 01:22:50;;;;;;;31.33;16.02;;;;;;;3.16;68.04;101176.58;1766124;80;21177;-62
2023/03/20 01:25:57;;;;;;;27.00;15.43;;;;;;;3.21;68.10;101178.95;1766131;80;21291;-62
2023/03/20 01:29:03;;;;;;;26.55;14.15;;;;;;;3.27;68.17;101182.09;1766308;80;21173;-62
2023/03/20 01:32:09;;;;;;;24.67;14.07;;;;;;;3.27;68.00;101175.83;1766316;80;21212;-61
2023/03/20 01:35:22;;;;;;;24.18;14.10;;;;;;;3.26;67.79;101178.14;1766105;80;21248;-61
2023/03/20 01:38:33;;;;;;;22.93;12.88;;;;;;;3.30;67.88;101179.16;1766309;80;21232;-61
2023/03/20 01:41:41;;;;;;;23.02;13.00;;;;;;;3.34;68.00;101176.63;1754000;80;21213;-62
2023/03/20 01:44:46;;;;;;;27.85;14.15;;;;;;;3.40;68.15;101174.82;1766304;80;21252;-62
2023/03/20 01:47:52;;;;;;;24.10;12.95;;;;;;;3.44;68.10;101172.77;1766116;80;21256;-61
2023/03/20 01:50:58;;;;;;;24.98;14.68;;;;;;;3.40;67.86;101174.82;1766948;80;21712;-62
2023/03/20 01:54:08;;;;;;;38.75;21.87;;;;;;;3.44;67.91;101179.02;1766338;80;21185;-63
2023/03/20 01:57:23;;;;;;;36.23;19.90;;;;;;;3.49;68.05;101173.30;1748500;81;21205;-61
2023/03/20 02:00:29;;;;;;;35.68;17.87;;;;;;;3.48;68.09;101162.95;1766039;80;21256;-61
2023/03/20 02:03:37;;;;;;;38.23;22.40;;;;;;;3.50;68.16;101159.66;1751864;80;21328;-61
2023/03/20 02:06:48;;;;;;;31.30;19.92;;;;;;;3.47;68.00;101159.00;1752236;80;21324;-61
2023/03/20 02:10:14;;;;;;;36.83;21.95;;;;;;;3.49;68.18;101163.83;1761505;80;21202;-61
2023/03/20 02:13:20;;;;;;;48.15;25.17;;;;;;;3.52;68.27;101161.73;1751400;81;21198;-61
2023/03/20 02:16:19;;;;;;;41.00;23.95;;;;;;;3.55;68.32;101161.50;1733331;82;21272;-61
2023/03/20 02:19:31;;;;;;;39.23;23.40;;;;;;;3.58;68.40;101164.02;1751455;81;21190;-61
2023/03/20 02:23:01;;;;;;;42.43;19.98;;;;;;;3.62;68.46;101161.45;1751387;82;21663;-61
2023/03/20 02:26:41;;;;;;;30.85;18.10;;;;;;;3.65;68.44;101147.68;1751385;80;21241;-61
2023/03/20 02:30:03;;;;;;;26.70;17.52;;;;;;;3.66;68.48;101152.14;1751413;82;21273;-61
2023/03/20 02:33:32;;;;;;;26.93;14.87;;;;;;;3.66;68.45;101165.67;1751358;82;21193;-61
2023/03/20 02:37:04;;;;;;;21.75;13.55;;;;;;;3.68;68.49;101154.22;1751402;80;21245;-61
2023/03/20 02:40:24;;;;;;;19.48;12.03;;;;;;;3.73;68.59;101156.10;1751421;80;21186;-61
2023/03/20 02:43:40;;;;;;;19.23;11.20;;;;;;;3.76;68.65;101154.52;1751416;82;21193;-61
2023/03/20 02:47:30;;;;;;;20.77;9.53;;;;;;;3.80;68.72;101155.16;1732088;82;21289;-61
2023/03/20 02:50:48;;;;;;;24.60;10.28;;;;;;;3.80;68.71;101147.91;1751454;80;21222;-61
2023/03/20 02:54:03;;;;;;;20.60;10.15;;;;;;;3.78;68.63;101153.05;1734830;81;21229;-62
2023/03/20 02:57:16;;;;;;;25.32;14.83;;;;;;;3.75;68.54;101162.28;1747288;80;21198;-61
2023/03/20 03:00:42;;;;;;;24.95;13.88;;;;;;;3.68;68.46;101156.93;1751362;80;21197;-62
2023/03/20 03:03:57;;;;;;;20.80;13.62;;;;;;;3.61;68.40;101154.31;1756276;80;21233;-61
2023/03/20 03:07:05;;;;;;;26.00;14.10;;;;;;;3.59;68.51;101156.27;1772601;80;21338;-61
2023/03/20 03:10:28;;;;;;;22.90;11.00;;;;;;;3.61;68.62;101155.67;1777119;79;21225;-61
2023/03/20 03:13:36;;;;;;;24.95;14.10;;;;;;;3.59;68.57;101154.91;1764144;81;21173;-61
2023/03/20 03:16:44;;;;;;;24.45;15.43;;;;;;;3.58;68.58;101153.19;1777560;79;21256;-60
2023/03/20 03:19:57;;;;;;;21.02;13.18;;;;;;;3.58;68.57;101155.90;1777038;81;21235;-61
2023/03/20 03:23:04;;;;;;;31.77;18.07;;;;;;;3.60;68.65;101157.98;1777747;80;21217;-61
2023/03/20 03:26:10;;;;;;;22.62;13.20;;;;;;;3.64;68.67;101162.20;1758036;81;21248;-61
2023/03/20 03:29:23;;;;;;;22.62;12.00;;;;;;;3.67;68.75;101160.62;1763926;81;21217;-60
2023/03/20 03:32:39;;;;;;;19.07;10.40;;;;;;;3.72;68.72;101165.70;1763972;81;21205;-61
2023/03/20 03:35:46;;;;;;;20.92;10.15;;;;;;;3.70;68.68;101164.45;1758349;80;21393;-61
2023/03/20 03:39:03;;;;;;;16.45;10.68;;;;;;;3.79;68.87;101161.06;1764205;81;21224;-61
2023/03/20 03:42:43;;;;;;;30.08;9.68;;;;;;;3.85;68.94;101163.34;1777599;79;21272;-61
2023/03/20 03:45:54;;;;;;;20.23;8.40;;;;;;;3.88;68.96;101163.11;1777173;79;21232;-61
2023/03/20 03:49:03;;;;;;;15.20;8.55;;;;;;;3.94;69.01;101155.87;1764098;81;21253;-60
2023/03/20 03:52:17;;;;;;;19.05;8.95;;;;;;;3.99;68.95;101156.88;1777514;79;21244;-61
2023/03/20 03:55:35;;;;;;;26.57;9.70;;;;;;;4.03;68.95;101144.81;1764158;80;21318;-60
2023/03/20 03:58:50;;;;;;;21.05;9.00;;;;;;;4.01;68.89;101145.44;1777732;80;21193;-61
2023/03/20 04:01:57;;;;;;;24.05;9.25;;;;;;;4.01;68.90;101143.58;1763989;80;21336;-61
2023/03/20 04:05:02;;;;;;;27.73;10.35;;;;;;;4.08;69.10;101146.20;1769891;78;21260;-60
2023/03/20 04:08:09;;;;;;;18.37;10.38;;;;;;;4.16;69.22;101142.91;1766530;80;21189;-61
2023/03/20 04:11:24;;;;;;;26.77;10.75;;;;;;;4.16;69.11;101149.20;1766506;80;21193;-59
2023/03/20 04:14:31;;;;;;;14.03;9.13;;;;;;;4.14;68.95;101148.92;1766130;80;21413;-60
2023/03/20 04:17:36;;;;;;;226.90;24.35;;;;;;;4.14;69.04;101143.02;1766147;80;21186;-61
2023/03/20 04:20:42;;;;;;;30.00;11.63;;;;;;;4.23;69.21;101149.09;1766096;80;21233;-61
2023/03/20 04:23:48;;;;;;;21.48;10.78;;;;;;;4.30;69.33;101144.95;1766336;80;21204;-59
2023/03/20 04:26:53;;;;;;;22.17;10.65;;;;;;;4.36;69.29;101141.75;1766355;80;21312;-61
2023/03/20 04:30:01;;;;;;;36.98;16.12;;;;;;;4.27;69.00;101146.53;1766428;80;21198;-61
2023/03/20 04:33:26;;;;;;;33.10;17.50;;;;;;;4.31;69.09;101148.53;1766454;80;21321;-60
2023/03/20 04:36:44;;;;;;;39.80;19.00;;;;;;;4.30;69.06;101144.07;1765725;80;21265;-60
2023/03/20 04:39:52;;;;;;;35.43;18.35;;;;;;;4.26;69.08;101140.75;1765117;81;21205;-60
2023/03/20 04:42:59;;;;;;;25.80;12.80;;;;;;;4.25;69.08;101147.14;1765887;80;21244;-61
2023/03/20 04:46:04;;;;;;;26.85;14.38;;;;;;;4.24;69.00;101145.90;1766288;80;21304;-60
2023/03/20 04:49:12;;;;;;;21.35;12.68;;;;;;;4.26;69.10;101146.66;1765780;80;21224;-60
2023/03/20 04:52:20;;;;;;;26.52;13.83;;;;;;;4.29;69.03;101141.00;1766503;80;21224;-60
2023/03/20 04:55:27;;;;;;;26.82;13.58;;;;;;;4.24;68.95;101145.90;1766918;80;21229;-60
2023/03/20 04:58:35;;;;;;;24.37;13.32;;;;;;;4.30;69.07;101142.72;1765970;80;21201;-61
2023/03/20 05:01:43;;;;;;;34.43;14.63;;;;;;;4.29;68.96;101137.81;1766614;80;21216;-60
2023/03/20 05:04:50;;;;;;;26.52;15.28;;;;;;;4.35;69.05;101131.91;1765602;80;21201;-60
2023/03/20 05:07:59;;;;;;;30.00;16.30;;;;;;;4.40;69.00;101144.63;1766653;80;21209;-60
2023/03/20 05:11:08;;;;;;;25.32;14.83;;;;;;;4.45;69.01;101144.27;1766057;80;21342;-60
2023/03/20 05:14:16;;;;;;;25.45;12.95;;;;;;;4.42;68.90;101146.70;1765469;81;21249;-61
2023/03/20 05:17:34;;;;;;;21.37;12.20;;;;;;;4.40;68.92;101144.63;1748353;80;21723;-61
2023/03/20 05:20:45;;;;;;;28.65;11.33;;;;;;;4.45;69.04;101143.78;1759782;81;21197;-60
2023/03/20 05:23:56;;;;;;;20.60;10.82;;;;;;;4.53;69.12;101150.80;1763563;81;21201;-59
2023/03/20 05:27:07;;;;;;;22.93;9.20;;;;;;;4.59;69.07;101157.12;1762149;81;21717;-60
2023/03/20 05:30:48;;;;;;;20.90;9.58;;;;;;;4.63;68.96;101147.39;1845693;76;22248;-60
2023/03/20 05:33:56;;;;;;;25.05;10.15;;;;;;;4.58;69.05;101145.89;1785324;79;21185;-58
2023/03/20 05:37:06;;;;;;;28.05;10.68;;;;;;;4.60;68.97;101159.33;1771430;79;21205;-60
2023/03/20 05:40:31;;;;;;;33.45;14.25;;;;;;;4.60;69.01;101161.55;1771046;79;21256;-60
2023/03/20 05:43:41;;;;;;;28.98;12.13;;;;;;;4.68;69.11;101158.75;1772887;80;21154;-60
2023/03/20 05:47:05;;;;;;;28.73;10.93;;;;;;;4.66;69.11;101164.78;1783000;78;21256;-61
2023/03/20 05:50:15;;;;;;;23.07;10.60;;;;;;;4.73;69.24;101170.08;1771260;79;21276;-61
2023/03/20 05:53:37;;;;;;;23.47;10.55;;;;;;;4.77;69.24;101168.87;1767847;80;21705;-61
2023/03/20 05:56:53;;;;;;;24.85;10.85;;;;;;;4.78;69.17;101167.39;1768547;80;21859;-61
2023/03/20 06:00:04;;;;;;;29.80;15.40;;;;;;;4.78;69.13;101174.66;1770236;79;21379;-60
2023/03/20 06:03:09;;;;;;;39.55;16.15;;;;;;;4.84;69.32;101168.75;1763223;79;21188;-61
2023/03/20 06:06:23;;;;;;;58.35;22.07;;;;;;;4.95;69.44;101163.38;1770089;80;21595;-62
2023/03/20 06:09:31;;;;;;;42.15;18.23;;;;;;;5.05;69.52;101161.16;1770743;80;21496;-61
2023/03/20 06:12:36;;;;;;;46.00;18.77;;;;;;;5.20;69.65;101165.86;1768959;81;21185;-63
2023/03/20 06:15:44;;;;;;;77.65;35.33;;;;;;;5.33;69.71;101162.50;1772504;79;21221;-61
2023/03/20 06:19:04;;;;;;;61.18;25.85;;;;;;;5.43;69.62;101160.30;1743155;81;21249;-64
2023/03/20 06:22:11;;;;;;;49.98;23.60;;;;;;;5.48;69.52;101162.64;1769232;79;21851;-63
2023/03/20 06:25:17;;;;;;;48.98;20.15;;;;;;;5.56;69.49;101156.09;1770084;79;22076;-60
2023/03/20 06:28:23;;;;;;;29.18;14.23;;;;;;;5.54;69.24;101162.13;1767837;80;21629;-59
2023/03/20 06:31:33;;;;;;;36.45;14.13;;;;;;;5.44;68.94;101161.17;1768984;79;21247;-57
2023/03/20 06:34:41;;;;;;;30.23;11.90;;;;;;;5.36;68.89;101171.27;1767935;80;21186;-57
2023/03/20 06:37:48;;;;;;;44.80;16.35;;;;;;;5.41;69.09;101173.13;1739596;81;21261;-58
2023/03/20 06:40:54;;;;;;;28.77;12.75;;;;;;;5.41;68.98;101169.54;1740623;81;21260;-58
2023/03/20 06:44:02;;;;;;;53.73;22.75;;;;;;;5.39;69.01;101170.18;1740005;82;21217;-58
2023/03/20 06:47:13;;;;;;;44.25;18.60;;;;;;;5.49;69.23;101173.86;1741892;80;21362;-58
2023/03/20 06:50:20;;;;;;;39.05;13.88;;;;;;;5.60;69.39;101172.01;1739393;81;21240;-65
2023/03/20 06:53:28;;;;;;;54.95;17.70;;;;;;;5.68;69.33;101166.81;1739692;82;21535;-65
2023/03/20 06:56:37;;;;;;;34.43;13.75;;;;;;;5.62;69.08;101165.09;1761243;81;21233;-64
2023/03/20 06:59:45;;;;;;;62.05;24.10;;;;;;;5.62;69.02;101160.53;1770514;80;21279;-64
2023/03/20 07:02:53;;;;;;;44.80;19.90;;;;;;;5.54;68.99;101158.06;1769334;80;21197;-64
2023/03/20 07:06:06;;;;;;;43.35;15.45;;;;;;;5.63;69.23;101169.52;1744570;81;21216;-69
2023/03/20 07:09:12;;;;;;;43.58;19.77;;;;;;;5.67;69.21;101154.23;1767028;80;21217;-63
2023/03/20 07:12:27;;;;;;;51.80;19.27;;;;;;;5.71;69.24;101154.82;1761257;81;21730;-64
2023/03/20 07:15:46;;;;;;;76.20;28.42;;;;;;;5.84;69.41;101156.94;1767113;79;21224;-63
2023/03/20 07:18:55;;;;;;;47.00;16.97;;;;;;;5.79;69.09;101161.84;1761093;81;21279;-64
2023/03/20 07:22:07;;;;;;;35.03;12.95;;;;;;;5.83;69.24;101160.66;1760423;80;22048;-64
2023/03/20 07:25:15;;;;;;;59.60;20.30;;;;;;;5.94;69.40;101156.55;1760234;79;21212;-59
2023/03/20 07:28:25;;;;;;;46.53;16.65;;;;;;;6.05;69.41;101152.44;1759669;81;21177;-63
2023/03/20 07:31:35;;;;;;;38.83;15.68;;;;;;;6.02;69.10;101155.42;1765003;80;21204;-59
2023/03/20 07:34:43;;;;;;;38.48;15.20;;;;;;;5.96;69.04;101158.66;1765890;80;21185;-62
2023/03/20 07:37:50;;;;;;;38.02;16.10;;;;;;;5.84;68.91;101159.17;1749592;80;21192;-62
2023/03/20 07:41:01;;;;;;;38.80;16.25;;;;;;;5.85;68.96;101162.23;1761508;80;21441;-62
2023/03/20 07:44:10;;;;;;;37.88;13.10;;;;;;;5.75;68.77;101167.17;1755284;81;21197;-62
2023/03/20 07:47:16;;;;;;;34.67;13.55;;;;;;;5.71;68.87;101169.76;1756611;79;22061;-63
2023/03/20 07:50:21;;;;;;;41.18;14.60;;;;;;;5.78;69.04;101171.00;1757926;81;21177;-63
2023/03/20 07:53:27;;;;;;;38.50;12.45;;;;;;;5.87;69.13;101166.19;1743811;80;21511;-63
2023/03/20 07:56:35;;;;;;;39.67;15.93;;;;;;;6.02;69.29;101177.16;1750439;79;21257;-62
2023/03/20 07:59:41;;;;;;;49.50;15.05;;;;;;;6.11;69.18;101168.23;1751587;81;21683;-62
2023/03/20 08:02:51;;;;;;;48.28;15.65;;;;;;;6.20;69.21;101164.73;1753024;81;21153;-62
2023/03/20 08:05:59;;;;;;;65.62;22.60;;;;;;;6.33;69.27;101165.95;1751034;81;21272;-63
2023/03/20 08:09:09;;;;;;;43.33;18.40;;;;;;;6.36;69.06;101171.96;1743560;81;21271;-62
2023/03/20 08:12:19;;;;;;;36.42;13.32;;;;;;;6.19;68.67;101172.53;1744957;80;21224;-62
2023/03/20 08:15:27;;;;;;;39.13;12.65;;;;;;;6.22;68.92;101170.03;1754028;80;21217;-59
2023/03/20 08:18:35;;;;;;;47.85;16.07;;;;;;;6.31;68.85;101166.56;1755646;79;21736;-60
2023/03/20 08:21:41;;;;;;;38.53;14.78;;;;;;;6.34;68.83;101171.25;1757676;81;21213;-59
2023/03/20 08:24:48;;;;;;;26.87;12.03;;;;;;;6.46;68.97;101160.68;1778038;79;21181;-60
2023/03/20 08:27:54;;;;;;;43.78;17.40;;;;;;;6.47;68.78;101163.75;1758435;81;21174;-60
2023/03/20 08:31:02;;;;;;;37.90;13.25;;;;;;;6.41;68.52;101171.08;1761084;79;21177;-59
2023/03/20 08:34:09;;;;;;;37.05;13.50;;;;;;;6.44;68.63;101174.90;1727338;81;21177;-59
2023/03/20 08:37:16;;;;;;;47.03;15.43;;;;;;;6.55;68.75;101168.56;1700041;82;21221;-60
2023/03/20 08:40:25;;;;;;;38.95;13.75;;;;;;;6.64;68.70;101165.05;1659975;85;21773;-59
2023/03/20 08:43:38;;;;;;;38.50;14.60;;;;;;;6.65;68.61;101161.32;1654408;84;21782;-56
2023/03/20 08:46:45;;;;;;;21.95;10.58;;;;;;;6.70;68.59;101163.15;1670342;83;22153;-60
2023/03/20 08:49:52;;;;;;;35.38;13.08;;;;;;;6.71;68.45;101157.58;1732139;82;21522;-60
2023/03/20 08:52:57;;;;;;;37.93;15.55;;;;;;;6.73;68.29;101155.59;1731888;81;21223;-58
2023/03/20 08:56:02;;;;;;;39.75;15.18;;;;;;;6.68;68.14;101152.41;1730739;81;21569;-59
2023/03/20 08:59:09;;;;;;;36.60;14.33;;;;;;;6.75;68.30;101159.55;1730012;82;21184;-59
2023/03/20 09:02:17;;;;;;;32.78;13.58;;;;;;;6.87;68.39;101165.27;1733844;81;21981;-61
2023/03/20 09:05:31;;;;;;;32.70;12.50;;;;;;;6.87;68.26;101155.26;1733506;81;21176;-60
2023/03/20 09:08:37;;;;;;;25.55;10.55;;;;;;;7.03;68.48;101149.33;1732120;82;21792;-60
2023/03/20 09:11:43;;;;;;;35.75;11.55;;;;;;;7.08;68.30;101152.03;1705254;82;21729;-60
2023/03/20 09:14:53;;;;;;;34.88;12.45;;;;;;;7.04;68.00;101147.83;1723562;82;21172;-60
2023/03/20 09:17:59;;;;;;;36.73;13.68;;;;;;;6.99;67.93;101143.28;1733640;82;21189;-60
2023/03/20 09:21:04;;;;;;;32.03;12.55;;;;;;;7.10;68.10;101139.64;1717859;81;21740;-61
2023/03/20 09:24:10;;;;;;;32.48;12.70;;;;;;;7.22;68.26;101142.63;1705714;82;21751;-60
2023/03/20 09:27:17;;;;;;;33.70;10.45;;;;;;;7.26;68.11;101142.21;1709612;82;21744;-62
2023/03/20 09:30:22;;;;;;;24.37;9.98;;;;;;;7.27;68.16;101139.88;1709588;82;21832;-59
2023/03/20 09:33:27;;;;;;;27.13;11.12;;;;;;;7.38;68.23;101136.18;1742833;78;21594;-59
2023/03/20 09:36:35;;;;;;;27.07;10.78;;;;;;;7.48;68.14;101131.13;1757167;80;21214;-60
2023/03/20 09:39:41;;;;;;;27.55;10.75;;;;;;;7.56;68.11;101133.18;1752130;80;21186;-59
2023/03/20 09:43:02;;;;;;;34.33;10.80;;;;;;;7.67;68.17;101139.01;1756452;80;21702;-58
2023/03/20 09:46:26;;;;;;;35.80;11.20;;;;;;;7.66;67.91;101132.69;1742272;81;21216;-59
2023/03/20 09:49:57;;;;;;;32.53;12.45;;;;;;;7.66;67.63;101129.13;1767700;80;21189;-59
2023/03/20 09:53:26;;;;;;;31.80;10.58;;;;;;;7.56;67.51;101127.20;1714294;82;22191;-60
2023/03/20 09:56:35;;;;;;;33.30;11.10;;;;;;;7.59;67.68;101122.84;1732623;82;21233;-59
2023/03/20 09:59:41;;;;;;;45.00;16.55;;;;;;;7.54;67.51;101121.55;1704056;83;21194;-59
2023/03/20 10:03:07;;;;;;;29.82;11.83;;;;;;;7.39;67.32;101121.06;1733595;81;21184;-59
2023/03/20 10:06:21;;;;;;;27.35;12.07;;;;;;;7.46;67.70;101120.89;1716574;82;21216;-61
2023/03/20 10:09:35;;;;;;;29.65;16.60;;;;;;;7.58;67.63;101119.77;1734523;81;21617;-58
2023/03/20 10:12:59;;;;;;;30.85;11.90;;;;;;;7.68;67.61;101114.83;1703660;84;21294;-59
2023/03/20 10:16:15;;;;;;;31.05;10.85;;;;;;;7.81;67.65;101105.91;1713028;81;21615;-58
2023/03/20 10:19:42;;;;;;;31.00;16.30;;;;;;;7.84;67.57;101110.59;1769538;80;21734;-58
2023/03/20 10:22:56;;;;;;;30.92;14.68;;;;;;;7.85;67.46;101110.09;1769095;80;21190;-59
2023/03/20 10:26:05;;;;;;;24.02;12.25;;;;;;;7.85;67.41;101099.19;1770028;80;21209;-58
2023/03/20 10:29:18;;;;;;;25.25;9.90;;;;;;;7.90;67.50;101096.88;1771111;80;21263;-59
2023/03/20 10:32:36;;;;;;;22.67;10.00;;;;;;;8.03;67.53;101102.44;1767594;80;21189;-58
2023/03/20 10:36:02;;;;;;;28.52;9.68;;;;;;;8.07;67.25;101104.37;1770847;79;21201;-58
2023/03/20 10:39:14;;;;;;;24.27;10.53;;;;;;;8.16;67.11;101096.70;1771500;80;21193;-59
2023/03/20 10:42:25;;;;;;;32.35;11.08;;;;;;;8.18;67.02;101094.17;1772195;79;21203;-59
2023/03/20 10:45:37;;;;;;;24.18;9.93;;;;;;;8.29;67.17;101093.22;1771659;79;21272;-61
2023/03/20 10:48:55;;;;;;;27.40;10.32;;;;;;;8.36;67.07;101087.53;1771950;80;21378;-59
2023/03/20 10:52:04;;;;;;;26.27;10.08;;;;;;;8.43;66.82;101087.33;1772024;79;21419;-59
2023/03/20 10:55:13;;;;;;;21.90;8.73;;;;;;;8.46;66.69;101078.35;1770208;81;21166;-59
2023/03/20 10:58:30;;;;;;;22.80;9.98;;;;;;;8.53;66.67;101078.64;1736563;82;21235;-60
2023/03/20 11:01:36;;;;;;;24.90;10.63;;;;;;;8.48;66.49;101080.94;1733221;81;21402;-59
2023/03/20 11:04:45;;;;;;;27.45;9.65;;;;;;;8.42;66.39;101071.45;1721174;83;21198;-59
2023/03/20 11:07:58;;;;;;;25.27;9.48;;;;;;;8.52;66.64;101071.43;1717374;83;21368;-58
2023/03/20 11:11:12;;;;;;;21.52;8.95;;;;;;;8.70;66.76;101069.69;1715255;82;21282;-61
2023/03/20 11:14:27;;;;;;;22.05;8.23;;;;;;;8.77;66.44;101057.16;1770967;80;21236;-59
2023/03/20 11:17:39;;;;;;;22.87;8.03;;;;;;;8.89;66.28;101055.98;1735455;82;21673;-59
2023/03/20 11:21:03;;;;;;;24.20;8.45;;;;;;;8.99;66.08;101057.66;1713459;82;21352;-58
2023/03/20 11:24:11;;;;;;;26.37;11.43;;;;;;;9.16;66.04;101047.84;1762699;81;21256;-58
2023/03/20 11:27:30;;;;;;;26.65;9.58;;;;;;;9.46;66.14;101046.67;1764885;80;21378;-58
2023/03/20 11:30:37;;;;;;;29.18;12.60;;;;;;;9.52;65.80;101049.65;1764745;79;21229;-56
2023/03/20 11:34:00;;;;;;;26.75;10.00;;;;;;;9.64;65.98;101047.05;1740653;82;21336;-59
2023/03/20 11:37:08;;;;;;;34.33;10.40;;;;;;;9.99;66.38;101046.25;1748893;81;21193;-58
2023/03/20 11:40:28;;;;;;;27.80;11.85;;;;;;;10.22;66.04;101030.59;1734274;81;21216;-58
2023/03/20 11:43:35;;;;;;;33.18;10.90;;;;;;;10.17;65.49;101026.59;1704610;83;21236;-57
2023/03/20 11:46:43;;;;;;;28.50;11.30;;;;;;;9.89;65.11;101021.70;1731816;82;21219;-58
2023/03/20 11:49:58;;;;;;;27.65;9.45;;;;;;;9.86;65.25;101017.05;1711597;83;21233;-58
2023/03/20 11:53:02;;;;;;;21.10;9.40;;;;;;;9.96;65.49;101013.21;1767664;80;21546;-59
2023/03/20 11:56:17;;;;;;;18.70;8.75;;;;;;;10.21;65.53;101008.34;1747957;81;21206;-58
2023/03/20 11:59:24;;;;;;;24.05;8.45;;;;;;;10.58;65.71;101012.22;1768992;81;21186;-58
2023/03/20 12:02:30;;;;;;;27.73;9.40;;;;;;;10.85;65.44;100998.36;1741394;81;21206;-59
2023/03/20 12:05:43;;;;;;;16.97;8.63;;;;;;;10.93;65.11;100991.56;1767926;79;21539;-59
2023/03/20 12:08:51;;;;;;;27.07;9.73;;;;;;;11.02;64.92;100993.30;1754555;81;21714;-58
2023/03/20 12:12:12;;;;;;;27.00;8.55;;;;;;;11.03;64.91;100986.83;1740863;81;21320;-58
2023/03/20 12:15:43;;;;;;;19.00;8.88;;;;;;;11.14;65.04;100981.55;1761899;79;21268;-59
2023/03/20 12:19:09;;;;;;;25.82;8.95;;;;;;;11.12;64.71;100982.22;1747888;81;21184;-60
2023/03/20 12:22:36;;;;;;;22.02;9.18;;;;;;;11.14;64.85;100972.83;1768027;79;21192;-59
2023/03/20 12:26:06;;;;;;;18.85;8.33;;;;;;;11.39;65.25;100971.88;1763641;81;21225;-60
2023/03/20 12:29:31;;;;;;;23.47;8.50;;;;;;;11.61;65.16;100969.02;1765999;79;21188;-58
2023/03/20 12:32:53;;;;;;;17.67;9.30;;;;;;;11.66;64.77;100948.34;1760235;80;21213;-59
2023/03/20 12:36:03;;;;;;;30.02;8.80;;;;;;;11.54;64.54;100957.02;1748934;80;21212;-59
2023/03/20 12:39:12;;;;;;;23.87;9.40;;;;;;;11.55;64.66;100949.13;1732826;81;21228;-57
2023/03/20 12:42:35;;;;;;;27.87;8.68;;;;;;;11.43;64.26;100949.11;1734938;81;21204;-60
2023/03/20 12:46:09;;;;;;;22.93;10.00;;;;;;;11.22;64.15;100940.48;1694096;84;21300;-58
2023/03/20 12:49:26;;;;;;;23.83;9.00;;;;;;;10.93;64.11;100937.27;1735203;81;21208;-59
2023/03/20 12:53:09;;;;;;;28.98;9.95;;;;;;;10.66;64.33;100937.48;1726493;82;21224;-59
2023/03/20 12:56:41;;;;;;;30.23;10.32;;;;;;;10.56;64.44;100938.95;1703112;82;21188;-59
2023/03/20 12:59:58;;;;;;;29.37;10.88;;;;;;;10.44;64.65;100944.38;1697188;84;21245;-59
2023/03/20 13:03:19;;;;;;;27.60;10.40;;;;;;;10.25;64.60;100944.08;1729817;82;21831;-58
2023/03/20 13:06:38;;;;;;;16.15;9.28;;;;;;;10.28;64.66;100941.52;1734194;81;21197;-59
2023/03/20 13:10:29;;;;;;;23.77;9.00;;;;;;;10.21;64.64;100943.20;1733201;81;21589;-59
2023/03/20 13:14:05;;;;;;;22.32;9.03;;;;;;;10.20;64.53;100944.20;1698045;83;21201;-60
2023/03/20 13:17:36;;;;;;;30.20;10.58;;;;;;;10.34;64.59;100937.64;1734170;81;21223;-60
2023/03/20 13:20:50;;;;;;;18.50;9.03;;;;;;;10.39;64.56;100930.31;1734202;82;21586;-60
2023/03/20 13:24:27;;;;;;;21.02;8.85;;;;;;;10.30;64.22;100932.16;1706583;83;21721;-60
2023/03/20 13:27:56;;;;;;;26.12;8.75;;;;;;;10.16;63.91;100921.77;1705640;84;21596;-58
2023/03/20 13:31:29;;;;;;;24.00;8.83;;;;;;;10.24;64.26;100922.36;1705522;82;21263;-58
2023/03/20 13:34:46;;;;;;;24.12;11.03;;;;;;;10.34;64.18;100918.98;1705620;84;21640;-59
2023/03/20 13:38:02;;;;;;;25.70;9.33;;;;;;;10.47;64.45;100920.78;1720964;79;21288;-58
2023/03/20 13:41:13;;;;;;;20.50;8.90;;;;;;;10.71;64.60;100907.73;1715390;82;21333;-60
2023/03/20 13:44:19;;;;;;;24.57;9.35;;;;;;;10.85;64.45;100907.97;1694081;83;21630;-60
2023/03/20 13:47:32;;;;;;;24.65;8.65;;;;;;;10.91;63.90;100900.99;1705958;83;21225;-59
2023/03/20 13:50:48;;;;;;;24.18;7.90;;;;;;;11.09;64.12;100903.95;1715447;82;21579;-59
2023/03/20 13:54:24;;;;;;;24.67;8.70;;;;;;;11.08;63.61;100906.36;1717131;82;21210;-59
2023/03/20 13:57:52;;;;;;;21.30;9.90;;;;;;;11.20;63.79;100903.65;1697173;82;22082;-59
2023/03/20 14:01:26;;;;;;;19.32;9.03;;;;;;;11.32;63.57;100900.92;1710495;83;21380;-60
2023/03/20 14:04:32;;;;;;;22.80;8.45;;;;;;;11.39;63.54;100901.11;1695584;84;21739;-59
2023/03/20 14:07:43;;;;;;;21.25;9.88;;;;;;;11.50;63.43;100898.05;1704917;83;21223;-59
2023/03/20 14:10:49;;;;;;;22.52;8.90;;;;;;;11.67;63.65;100885.59;1729399;81;21760;-59
2023/03/20 14:14:05;;;;;;;16.42;8.65;;;;;;;11.66;63.03;100881.14;1692716;83;21734;-59
2023/03/20 14:17:26;;;;;;;21.25;8.18;;;;;;;11.74;63.08;100877.54;1758189;79;21213;-57
2023/03/20 14:20:42;;;;;;;18.45;7.03;;;;;;;11.90;63.14;100885.77;1767333;81;21217;-58
2023/03/20 14:23:50;;;;;;;17.17;7.65;;;;;;;12.01;63.17;100881.30;1756479;80;21194;-58
2023/03/20 14:27:01;;;;;;;20.88;6.85;;;;;;;12.02;62.80;100878.89;1755373;80;21212;-57
2023/03/20 14:30:09;;;;;;;20.95;7.00;;;;;;;11.95;62.32;100869.16;1767570;79;21229;-58
2023/03/20 14:33:25;;;;;;;24.15;7.15;;;;;;;11.89;62.09;100866.23;1746776;81;21241;-59
2023/03/20 14:36:37;;;;;;;16.57;6.37;;;;;;;11.73;61.54;100877.21;1753135;80;21690;-58
2023/03/20 14:39:56;;;;;;;21.00;7.23;;;;;;;11.64;61.56;100868.61;1701846;80;21624;-58
2023/03/20 14:43:07;;;;;;;15.80;6.95;;;;;;;11.67;61.45;100864.19;1760849;80;21425;-59
2023/03/20 14:46:40;;;;;;;20.20;7.55;;;;;;;11.61;61.31;100863.44;1759529;80;21766;-59